Time;durP1;ratioP1;P1;durP2;ratioP2;P2;SDS_P1;SDS_P2;PMS_P1;PMS_P2;Temp;Humidity;BMP_temperature;BMP_pressure;BME280_temperature;BME280_humidity;BME280_pressure;Samples;Min_cycle;Max_cycle;Signal;HPM_P1;HPM_P2
2021/04/18 00:04:30;;;;;;;177.43;29.70;;;;;;;6.72;100.00;100877.97;20852559;28;20220;-65
2021/04/18 00:14:30;;;;;;;238.73;42.17;;;;;;;6.91;100.00;100886.06;20897237;28;20293;-67
2021/04/18 00:24:31;;;;;;;196.40;42.90;;;;;;;7.12;100.00;100887.88;20895973;28;20239;-65
2021/04/18 00:34:31;;;;;;;222.97;53.90;;;;;;;7.30;100.00;100878.25;20893335;28;20744;-67
2021/04/18 00:44:32;;;;;;;206.50;53.27;;;;;;;7.40;100.00;100876.94;20900926;28;20277;-56
2021/04/18 00:54:32;;;;;;;184.83;44.67;;;;;;;7.45;100.00;100858.16;20894815;28;20227;-63
2021/04/18 01:04:33;;;;;;;206.03;48.37;;;;;;;7.54;100.00;100858.63;20894509;28;20470;-67
2021/04/18 01:14:33;;;;;;;236.60;61.03;;;;;;;7.48;100.00;100850.09;20894004;28;20594;-63
2021/04/18 01:24:34;;;;;;;215.40;51.33;;;;;;;7.37;100.00;100849.66;20894002;28;20220;-55
2021/04/18 01:34:40;;;;;;;194.38;45.53;;;;;;;7.35;100.00;100844.44;20886190;28;20481;-65
2021/04/18 01:44:40;;;;;;;226.33;42.47;;;;;;;7.49;100.00;100838.50;20906619;28;20226;-63
2021/04/18 01:54:41;;;;;;;277.83;44.78;;;;;;;7.42;100.00;100837.91;20908116;28;20227;-60
2021/04/18 02:04:55;;;;;;;198.43;35.57;;;;;;;7.48;100.00;100840.31;20906426;28;20215;-55
2021/04/18 02:14:55;;;;;;;170.63;30.27;;;;;;;7.52;100.00;100828.63;20906495;28;20230;-59
2021/04/18 02:24:56;;;;;;;217.97;32.03;;;;;;;7.53;100.00;100833.00;20906130;28;20672;-62
2021/04/18 02:34:56;;;;;;;114.90;23.00;;;;;;;7.58;100.00;100825.72;20903733;28;20553;-65
2021/04/18 02:44:57;;;;;;;144.93;27.20;;;;;;;7.49;100.00;100833.19;20904174;28;20211;-56
2021/04/18 02:54:57;;;;;;;223.67;33.80;;;;;;;7.49;100.00;100828.75;20902539;28;20224;-56
2021/04/18 03:05:00;;;;;;;203.73;30.47;;;;;;;7.54;100.00;100840.03;20903254;28;20644;-55
2021/04/18 03:15:00;;;;;;;240.90;28.87;;;;;;;7.57;100.00;100842.56;20901936;28;20215;-55
2021/04/18 03:25:01;;;;;;;240.73;34.38;;;;;;;7.59;100.00;100846.03;20901116;28;20212;-60
2021/04/18 03:35:04;;;;;;;250.40;32.37;;;;;;;7.47;100.00;100845.69;20898891;28;20589;-66
2021/04/18 03:45:05;;;;;;;282.37;33.70;;;;;;;7.48;100.00;100858.06;20897902;28;20540;-67
2021/04/18 03:55:06;;;;;;;154.57;27.80;;;;;;;7.36;100.00;100867.41;20898681;28;20314;-58
2021/04/18 04:05:08;;;;;;;206.73;27.57;;;;;;;7.38;100.00;100864.66;20897964;28;20239;-59
2021/04/18 04:15:08;;;;;;;112.50;21.00;;;;;;;7.47;100.00;100881.09;20897090;28;20246;-68
2021/04/18 04:25:10;;;;;;;210.77;27.57;;;;;;;7.67;100.00;100874.91;20896486;28;20924;-68
2021/04/18 04:35:11;;;;;;;133.23;27.07;;;;;;;7.69;100.00;100886.34;20894696;28;20243;-57
2021/04/18 04:45:12;;;;;;;160.10;27.20;;;;;;;7.76;100.00;100885.13;20895461;28;20212;-57
2021/04/18 04:55:20;;;;;;;184.67;31.70;;;;;;;8.02;100.00;100881.31;20895248;28;20234;-69
2021/04/18 05:05:20;;;;;;;135.07;29.13;;;;;;;8.23;100.00;100900.75;20894453;28;20223;-63
2021/04/18 05:15:22;;;;;;;131.37;31.83;;;;;;;8.57;100.00;100889.47;20902875;28;20239;-58
2021/04/18 05:25:23;;;;;;;134.13;30.33;;;;;;;8.50;100.00;100893.34;20910373;28;20229;-64
2021/04/18 05:35:30;;;;;;;98.10;29.37;;;;;;;8.46;100.00;100903.25;20908477;28;20696;-54
2021/04/18 05:45:31;;;;;;;136.53;27.70;;;;;;;8.72;100.00;100909.16;20909060;28;20338;-55
2021/04/18 05:55:33;;;;;;;77.03;22.27;;;;;;;8.65;100.00;100912.13;20908184;28;20316;-57
2021/04/18 06:05:33;;;;;;;113.53;26.70;;;;;;;8.82;100.00;100916.63;20907409;28;20525;-54
2021/04/18 06:15:34;;;;;;;117.50;26.50;;;;;;;9.08;100.00;100918.03;20906572;28;20323;-59
2021/04/18 06:25:34;;;;;;;97.47;27.80;;;;;;;8.97;100.00;100928.34;20905053;28;20276;-70
2021/04/18 06:35:41;;;;;;;127.33;33.33;;;;;;;9.03;100.00;100918.28;20886061;28;20260;-62
2021/04/18 06:45:43;;;;;;;105.87;30.17;;;;;;;9.34;100.00;100924.75;20834354;28;20242;-55
2021/04/18 06:55:43;;;;;;;72.43;23.00;;;;;;;9.95;100.00;100933.19;20820299;28;20239;-55
2021/04/18 07:05:46;;;;;;;102.83;31.00;;;;;;;10.16;100.00;100936.50;20820199;28;20574;-70
2021/04/18 07:15:47;;;;;;;101.37;31.03;;;;;;;10.32;100.00;100937.47;20819310;28;20223;-58
2021/04/18 07:25:48;;;;;;;97.47;29.07;;;;;;;10.87;100.00;100939.78;20819255;28;20232;-55
2021/04/18 07:35:49;;;;;;;97.70;30.07;;;;;;;11.10;100.00;100947.41;20816896;28;20235;-55
2021/04/18 07:45:51;;;;;;;68.90;25.30;;;;;;;11.26;100.00;100943.84;20817285;28;20493;-60
2021/04/18 07:55:52;;;;;;;60.13;25.93;;;;;;;11.22;100.00;100942.31;20649238;28;20232;-55
2021/04/18 08:05:52;;;;;;;58.20;24.73;;;;;;;11.93;100.00;100942.63;20667979;28;20592;-54
2021/04/18 08:15:57;;;;;;;49.20;24.43;;;;;;;12.30;100.00;100946.59;20635052;28;20469;-59
2021/04/18 08:26:04;;;;;;;44.67;23.07;;;;;;;12.43;100.00;100948.44;20639988;28;20225;-54
2021/04/18 08:36:25;;;;;;;37.03;22.30;;;;;;;12.44;100.00;100950.13;20707382;28;20248;-56
2021/04/18 08:46:27;;;;;;;39.53;24.60;;;;;;;12.91;100.00;100940.94;20723414;28;20555;-60
2021/04/18 08:56:48;;;;;;;40.30;24.77;;;;;;;13.91;100.00;100946.81;20707410;28;20265;-56
2021/04/18 09:06:48;;;;;;;34.43;24.20;;;;;;;13.86;100.00;100943.59;20713470;28;20238;-56
2021/04/18 09:16:50;;;;;;;23.83;18.33;;;;;;;13.51;100.00;100935.25;20711216;28;20873;-60
2021/04/18 09:26:59;;;;;;;28.10;21.30;;;;;;;12.66;100.00;100940.78;20705405;28;20231;-52
2021/04/18 09:37:01;;;;;;;31.73;21.57;;;;;;;12.99;100.00;100941.28;20717272;28;20234;-52
2021/04/18 09:47:04;;;;;;;33.37;24.10;;;;;;;13.98;100.00;100938.25;20697252;28;20235;-53
2021/04/18 09:57:21;;;;;;;29.73;22.40;;;;;;;15.56;100.00;100941.28;20718635;28;20690;-52
2021/04/18 10:07:27;;;;;;;24.13;18.97;;;;;;;15.36;100.00;100935.50;20710459;28;20585;-53
2021/04/18 10:17:33;;;;;;;26.77;21.30;;;;;;;14.82;100.00;100934.19;20730267;28;20300;-58
2021/04/18 10:27:34;;;;;;;29.77;23.20;;;;;;;15.09;100.00;100937.56;20713941;28;20287;-53
2021/04/18 10:37:35;;;;;;;28.03;23.70;;;;;;;16.29;100.00;100938.31;20723849;28;20563;-55
2021/04/18 10:47:36;;;;;;;25.03;22.30;;;;;;;15.91;100.00;100936.75;20731903;28;20235;-59
2021/04/18 10:57:37;;;;;;;25.67;21.87;;;;;;;15.18;100.00;100928.81;20754674;28;20220;-57
2021/04/18 11:07:38;;;;;;;30.60;26.13;;;;;;;15.42;100.00;100920.75;20806213;28;20224;-66
2021/04/18 11:17:38;;;;;;;27.87;24.40;;;;;;;15.57;100.00;100916.94;20748860;28;20232;-54
2021/04/18 11:27:40;;;;;;;26.93;24.07;;;;;;;15.73;100.00;100919.31;20759451;28;20221;-58
2021/04/18 11:37:40;;;;;;;24.00;21.43;;;;;;;15.63;100.00;100919.16;20701406;28;20256;-59
2021/04/18 11:47:41;;;;;;;28.10;23.40;;;;;;;14.99;100.00;100905.09;20720190;28;20327;-57
2021/04/18 11:57:42;;;;;;;25.60;21.87;;;;;;;15.48;100.00;100906.81;20704894;28;20231;-63
2021/04/18 12:07:56;;;;;;;21.60;19.40;;;;;;;16.42;100.00;100899.50;20720300;28;20224;-53
2021/04/18 12:17:58;;;;;;;23.00;20.63;;;;;;;17.60;100.00;100888.91;20709662;28;20243;-65
2021/04/18 12:27:58;;;;;;;22.20;19.87;;;;;;;18.28;100.00;100887.53;20711330;28;20766;-60
2021/04/18 12:37:59;;;;;;;18.97;17.00;;;;;;;17.50;99.55;100874.47;20714495;28;20233;-61
2021/04/18 12:47:59;;;;;;;18.05;16.25;;;;;;;16.64;97.48;100868.19;20729799;28;20483;-53
2021/04/18 12:58:00;;;;;;;20.40;18.30;;;;;;;15.96;98.44;100859.19;20811406;28;20230;-68
2021/04/18 13:08:00;;;;;;;18.03;16.13;;;;;;;15.73;98.64;100857.41;20776892;28;20704;-65
2021/04/18 13:18:01;;;;;;;18.80;16.90;;;;;;;15.90;100.00;100858.81;20799943;28;20224;-56
2021/04/18 13:28:01;;;;;;;16.03;14.47;;;;;;;16.35;100.00;100857.03;20749437;28;20257;-66
2021/04/18 13:38:02;;;;;;;18.00;16.23;;;;;;;17.13;100.00;100840.78;20724824;28;20240;-63
2021/04/18 13:48:03;;;;;;;16.47;14.87;;;;;;;17.00;99.89;100842.78;20719907;28;20228;-57
2021/04/18 13:58:03;;;;;;;16.37;14.87;;;;;;;16.96;100.00;100844.00;20724830;28;20818;-55
2021/04/18 14:08:04;;;;;;;15.90;14.40;;;;;;;16.93;100.00;100819.00;20726222;28;20225;-64
2021/04/18 14:18:05;;;;;;;16.30;14.70;;;;;;;16.92;99.97;100838.00;20722464;28;20217;-55
2021/04/18 14:28:06;;;;;;;13.43;12.17;;;;;;;16.50;96.50;100834.25;20730463;28;20651;-56
2021/04/18 14:38:06;;;;;;;11.27;10.17;;;;;;;16.05;96.52;100836.94;20707529;28;20718;-57
2021/04/18 14:48:08;;;;;;;9.50;8.50;;;;;;;15.90;94.42;100838.16;20727653;28;20313;-57
2021/04/18 14:58:10;;;;;;;8.97;8.17;;;;;;;16.05;91.60;100828.88;20707002;28;20593;-55
2021/04/18 15:08:10;;;;;;;8.60;7.90;;;;;;;16.47;96.99;100824.56;20726109;28;20235;-55
2021/04/18 15:18:11;;;;;;;7.63;7.03;;;;;;;16.86;95.27;100823.19;20709865;28;20233;-56
2021/04/18 15:28:11;;;;;;;9.40;8.43;;;;;;;16.73;93.08;100813.53;20718652;28;20749;-55
2021/04/18 15:38:12;;;;;;;7.33;6.63;;;;;;;17.08;93.06;100816.00;20716499;28;20302;-55
2021/04/18 15:48:13;;;;;;;6.13;5.67;;;;;;;16.97;90.79;100813.34;20710019;28;20229;-55
2021/04/18 15:58:13;;;;;;;5.20;4.87;;;;;;;16.68;93.74;100808.50;20722391;28;20239;-55
2021/04/18 16:08:14;;;;;;;5.43;5.00;;;;;;;16.08;82.23;100809.75;20701490;28;20372;-55
2021/04/18 16:18:14;;;;;;;6.50;5.90;;;;;;;15.32;84.91;100815.72;20721408;28;20664;-68
2021/04/18 16:28:15;;;;;;;9.00;8.10;;;;;;;14.83;86.05;100815.84;20700718;28;20331;-64
2021/04/18 16:38:15;;;;;;;7.87;7.17;;;;;;;14.65;91.35;100819.88;20717564;28;20315;-55
2021/04/18 16:48:16;;;;;;;7.10;6.50;;;;;;;14.37;91.44;100812.91;20710405;28;20723;-63
2021/04/18 16:58:16;;;;;;;7.23;6.53;;;;;;;14.03;92.85;100818.00;20714923;28;20716;-54
2021/04/18 17:08:17;;;;;;;14.03;12.50;;;;;;;13.73;95.16;100825.53;20713981;28;20282;-59
2021/04/18 17:18:18;;;;;;;23.60;20.67;;;;;;;13.43;97.60;100822.28;20723777;28;21054;-55
2021/04/18 17:28:18;;;;;;;20.40;18.17;;;;;;;13.07;100.00;100837.16;20734697;28;20229;-55
2021/04/18 17:38:19;;;;;;;42.77;33.00;;;;;;;12.69;100.00;100836.97;20713362;28;20317;-55
2021/04/18 17:48:19;;;;;;;14.17;12.73;;;;;;;12.30;100.00;100839.56;20733014;28;20772;-55
2021/04/18 17:58:20;;;;;;;9.03;8.23;;;;;;;11.95;100.00;100844.44;20715955;28;20478;-54
2021/04/18 18:08:20;;;;;;;18.57;13.50;;;;;;;11.65;100.00;100842.63;20813434;28;20771;-56
2021/04/18 18:18:21;;;;;;;26.13;19.23;;;;;;;11.40;100.00;100853.06;20795200;28;21024;-58
2021/04/18 18:28:22;;;;;;;16.27;14.47;;;;;;;11.17;100.00;100857.94;20806322;28;20235;-56
2021/04/18 18:38:23;;;;;;;13.87;12.53;;;;;;;11.05;100.00;100858.66;20801117;28;20732;-53
2021/04/18 18:48:23;;;;;;;14.80;13.30;;;;;;;10.97;100.00;100855.56;20798913;28;20228;-56
2021/04/18 18:58:23;;;;;;;14.50;13.10;;;;;;;10.81;100.00;100860.03;20790937;28;20220;-60
2021/04/18 19:08:24;;;;;;;14.63;13.00;;;;;;;10.70;100.00;100867.81;20786302;28;20950;-69
2021/04/18 19:18:25;;;;;;;13.97;12.57;;;;;;;10.82;100.00;100864.44;20674540;28;20229;-60
2021/04/18 19:28:26;;;;;;;11.77;10.67;;;;;;;11.04;100.00;100858.72;20657988;28;20232;-67
2021/04/18 19:38:28;;;;;;;17.48;15.13;;;;;;;11.08;100.00;100846.94;20671188;28;20236;-54
2021/04/18 19:48:28;;;;;;;13.63;12.33;;;;;;;11.08;100.00;100853.13;20657263;28;20242;-55
2021/04/18 19:58:29;;;;;;;14.13;12.83;;;;;;;11.10;100.00;100840.56;20705170;28;20221;-57
2021/04/18 20:08:29;;;;;;;15.50;13.90;;;;;;;11.15;100.00;100821.56;20672005;28;20594;-56
2021/04/18 20:18:30;;;;;;;16.57;14.93;;;;;;;11.09;100.00;100796.09;20652628;28;20467;-56
2021/04/18 20:28:30;;;;;;;18.30;15.82;;;;;;;10.93;100.00;100816.63;20651920;28;20523;-56
2021/04/18 20:38:31;;;;;;;17.33;15.07;;;;;;;10.92;100.00;100804.22;20648896;28;20694;-55
2021/04/18 20:48:32;;;;;;;20.00;17.47;;;;;;;10.95;100.00;100804.06;20652084;28;20502;-55
2021/04/18 20:58:32;;;;;;;24.53;20.10;;;;;;;10.58;100.00;100804.44;20622724;28;20221;-55
2021/04/18 21:08:32;;;;;;;24.73;21.63;;;;;;;10.52;100.00;100844.78;20703936;28;20236;-60
2021/04/18 21:18:33;;;;;;;34.17;30.67;;;;;;;11.22;100.00;100838.13;20704610;28;20427;-56
2021/04/18 21:28:34;;;;;;;31.23;23.73;;;;;;;11.00;100.00;100844.69;20708027;28;20239;-55
2021/04/18 21:38:34;;;;;;;23.40;20.77;;;;;;;10.87;100.00;100869.53;20716349;28;20316;-58
2021/04/18 21:48:42;;;;;;;31.00;26.40;;;;;;;10.54;100.00;100933.63;20705222;28;20699;-54
2021/04/18 21:58:43;;;;;;;35.55;31.13;;;;;;;10.93;100.00;100918.09;20722591;28;20451;-52
2021/04/18 22:08:43;;;;;;;23.60;19.50;;;;;;;10.83;100.00;100887.53;20718049;28;20232;-52
2021/04/18 22:18:50;;;;;;;24.00;19.90;;;;;;;10.73;100.00;100891.66;20731919;28;20828;-53
2021/04/18 22:28:51;;;;;;;38.37;28.77;;;;;;;10.70;100.00;100903.38;20713309;28;20229;-53
2021/04/18 22:38:52;;;;;;;31.57;26.50;;;;;;;10.58;100.00;100905.84;20726206;28;20225;-53
2021/04/18 22:48:52;;;;;;;32.87;26.43;;;;;;;10.61;100.00;100882.53;20718257;28;20271;-54
2021/04/18 22:58:52;;;;;;;29.83;22.60;;;;;;;10.45;100.00;100847.81;20719969;28;20227;-54
2021/04/18 23:08:53;;;;;;;29.33;24.00;;;;;;;10.28;100.00;100805.19;20723269;28;20235;-54
2021/04/18 23:18:53;;;;;;;24.53;20.93;;;;;;;10.04;100.00;100763.84;20710998;28;20239;-53
2021/04/18 23:28:54;;;;;;;26.33;23.13;;;;;;;9.93;100.00;100771.56;20726464;28;20695;-53
2021/04/18 23:38:54;;;;;;;26.77;22.98;;;;;;;9.90;100.00;100759.25;20704197;28;20235;-53
2021/04/18 23:48:55;;;;;;;28.97;24.10;;;;;;;9.82;100.00;100760.63;20723759;28;20232;-53
2021/04/18 23:58:55;;;;;;;32.30;27.53;;;;;;;9.73;100.00;100735.34;20706172;28;20225;-53
